sensor_id;sensor_type;location;lat;lon;timestamp;pressure;altitude;pressure_sealevel;temperature;humidity
21574;BME280;10948;48.706;9.258;2023-04-01T00:00:45;96461.91;;;9.98;100.00
21574;BME280;10948;48.706;9.258;2023-04-01T00:03:11;96466.84;;;10.01;100.00
21574;BME280;10948;48.706;9.258;2023-04-01T00:05:36;96468.53;;;10.13;100.00
21574;BME280;10948;48.706;9.258;2023-04-01T00:08:02;96462.16;;;10.17;100.00
21574;BME280;10948;48.706;9.258;2023-04-01T00:10:27;96465.81;;;10.04;100.00
21574;BME280;10948;48.706;9.258;2023-04-01T00:12:52;96474.53;;;10.03;100.00
21574;BME280;10948;48.706;9.258;2023-04-01T00:15:18;96465.81;;;10.04;100.00
21574;BME280;10948;48.706;9.258;2023-04-01T00:17:43;96462.84;;;10.08;100.00
21574;BME280;10948;48.706;9.258;2023-04-01T00:20:08;96470.44;;;10.11;100.00
21574;BME280;10948;48.706;9.258;2023-04-01T00:22:34;96462.03;;;10.08;100.00
21574;BME280;10948;48.706;9.258;2023-04-01T00:24:59;96456.94;;;9.95;100.00
21574;BME280;10948;48.706;9.258;2023-04-01T00:27:25;96459.78;;;10.03;100.00
21574;BME280;10948;48.706;9.258;2023-04-01T00:29:51;96463.56;;;9.88;100.00
21574;BME280;10948;48.706;9.258;2023-04-01T00:32:16;96460.25;;;9.97;100.00
21574;BME280;10948;48.706;9.258;2023-04-01T00:34:41;96457.78;;;9.85;100.00
21574;BME280;10948;48.706;9.258;2023-04-01T00:37:07;96461.66;;;10.01;100.00
21574;BME280;10948;48.706;9.258;2023-04-01T00:39:32;96463.72;;;9.87;100.00
21574;BME280;10948;48.706;9.258;2023-04-01T00:41:58;96454.13;;;9.87;100.00
21574;BME280;10948;48.706;9.258;2023-04-01T00:44:24;96461.31;;;9.95;100.00
21574;BME280;10948;48.706;9.258;2023-04-01T00:46:50;96455.06;;;9.86;100.00
21574;BME280;10948;48.706;9.258;2023-04-01T00:49:17;96455.75;;;9.88;100.00
21574;BME280;10948;48.706;9.258;2023-04-01T00:51:44;96462.59;;;10.00;100.00
21574;BME280;10948;48.706;9.258;2023-04-01T00:54:11;96464.06;;;10.04;100.00
21574;BME280;10948;48.706;9.258;2023-04-01T00:56:37;96463.66;;;9.98;100.00
21574;BME280;10948;48.706;9.258;2023-04-01T00:59:11;96464.63;;;9.97;100.00
21574;BME280;10948;48.706;9.258;2023-04-01T01:01:38;96466.41;;;10.07;100.00
21574;BME280;10948;48.706;9.258;2023-04-01T01:04:03;96460.63;;;10.04;100.00
21574;BME280;10948;48.706;9.258;2023-04-01T01:06:40;96464.06;;;10.04;100.00
21574;BME280;10948;48.706;9.258;2023-04-01T01:11:54;96457.41;;;10.00;100.00
21574;BME280;10948;48.706;9.258;2023-04-01T01:17:32;96465.47;;;9.97;100.00
21574;BME280;10948;48.706;9.258;2023-04-01T01:22:51;96457.66;;;9.97;100.00
21574;BME280;10948;48.706;9.258;2023-04-01T01:28:07;96459.44;;;10.08;100.00
21574;BME280;10948;48.706;9.258;2023-04-01T01:30:51;96458.13;;;9.91;100.00
21574;BME280;10948;48.706;9.258;2023-04-01T01:33:24;96461.69;;;9.90;100.00
21574;BME280;10948;48.706;9.258;2023-04-01T01:35:56;96466.16;;;9.88;100.00
21574;BME280;10948;48.706;9.258;2023-04-01T01:38:24;96449.97;;;9.85;100.00
21574;BME280;10948;48.706;9.258;2023-04-01T01:40:51;96451.03;;;9.82;100.00
21574;BME280;10948;48.706;9.258;2023-04-01T01:43:20;96456.72;;;9.98;100.00
21574;BME280;10948;48.706;9.258;2023-04-01T01:45:48;96461.69;;;9.90;100.00
21574;BME280;10948;48.706;9.258;2023-04-01T01:48:14;96459.78;;;10.03;100.00
21574;BME280;10948;48.706;9.258;2023-04-01T01:50:40;96455.19;;;9.85;100.00
21574;BME280;10948;48.706;9.258;2023-04-01T01:53:08;96457.19;;;9.92;100.00
21574;BME280;10948;48.706;9.258;2023-04-01T01:55:41;96454.59;;;9.81;100.00
21574;BME280;10948;48.706;9.258;2023-04-01T01:58:09;96454.59;;;9.81;100.00
21574;BME280;10948;48.706;9.258;2023-04-01T02:00:37;96451.53;;;9.98;100.00
21574;BME280;10948;48.706;9.258;2023-04-01T02:03:02;96453.41;;;9.74;100.00
21574;BME280;10948;48.706;9.258;2023-04-01T02:05:29;96458.88;;;9.71;100.00
21574;BME280;10948;48.706;9.258;2023-04-01T02:08:16;96458.41;;;9.77;100.00
21574;BME280;10948;48.706;9.258;2023-04-01T02:10:42;96459.09;;;9.79;100.00
21574;BME280;10948;48.706;9.258;2023-04-01T02:13:19;96459.09;;;9.79;100.00
21574;BME280;10948;48.706;9.258;2023-04-01T02:15:47;96452.69;;;9.83;100.00
21574;BME280;10948;48.706;9.258;2023-04-01T02:18:14;96459.09;;;9.68;100.00
21574;BME280;10948;48.706;9.258;2023-04-01T02:20:40;96455.06;;;9.75;100.00
21574;BME280;10948;48.706;9.258;2023-04-01T02:23:06;96461.22;;;9.63;100.00
21574;BME280;10948;48.706;9.258;2023-04-01T02:25:33;96452.72;;;9.61;100.00
21574;BME280;10948;48.706;9.258;2023-04-01T02:28:00;96459.81;;;9.59;100.00
21574;BME280;10948;48.706;9.258;2023-04-01T02:30:27;96470.66;;;9.75;100.00
21574;BME280;10948;48.706;9.258;2023-04-01T02:32:53;96470.09;;;9.61;100.00
21574;BME280;10948;48.706;9.258;2023-04-01T02:35:20;96476.09;;;9.61;100.00
21574;BME280;10948;48.706;9.258;2023-04-01T02:37:45;96469.72;;;9.54;100.00
21574;BME280;10948;48.706;9.258;2023-04-01T02:40:13;96470.66;;;9.53;100.00
21574;BME280;10948;48.706;9.258;2023-04-01T02:42:39;96468.31;;;9.50;100.00
21574;BME280;10948;48.706;9.258;2023-04-01T02:45:05;96465.00;;;9.59;100.00
21574;BME280;10948;48.706;9.258;2023-04-01T02:47:31;96468.41;;;9.60;100.00
21574;BME280;10948;48.706;9.258;2023-04-01T02:49:56;96479.41;;;9.52;100.00
21574;BME280;10948;48.706;9.258;2023-04-01T02:52:27;96462.16;;;9.51;100.00
21574;BME280;10948;48.706;9.258;2023-04-01T02:54:53;96467.03;;;9.67;100.00
21574;BME280;10948;48.706;9.258;2023-04-01T02:57:18;96460.53;;;9.50;100.00
21574;BME280;10948;48.706;9.258;2023-04-01T02:59:44;96463.31;;;9.36;100.00
21574;BME280;10948;48.706;9.258;2023-04-01T03:02:09;96465.34;;;9.44;100.00
21574;BME280;10948;48.706;9.258;2023-04-01T03:04:34;96458.63;;;9.30;100.00
21574;BME280;10948;48.706;9.258;2023-04-01T03:07:00;96455.88;;;9.32;100.00
21574;BME280;10948;48.706;9.258;2023-04-01T03:09:25;96463.28;;;9.14;100.00
21574;BME280;10948;48.706;9.258;2023-04-01T03:11:50;96460.13;;;9.33;100.00
21574;BME280;10948;48.706;9.258;2023-04-01T03:14:15;96462.72;;;9.22;100.00
21574;BME280;10948;48.706;9.258;2023-04-01T03:16:41;96458.13;;;9.25;100.00
21574;BME280;10948;48.706;9.258;2023-04-01T03:19:06;96465.09;;;9.25;100.00
21574;BME280;10948;48.706;9.258;2023-04-01T03:21:31;96460.94;;;9.22;100.00
21574;BME280;10948;48.706;9.258;2023-04-01T03:23:56;96457.66;;;9.42;100.00
21574;BME280;10948;48.706;9.258;2023-04-01T03:26:21;96466.84;;;9.13;100.00
21574;BME280;10948;48.706;9.258;2023-04-01T03:28:47;96459.53;;;9.18;100.00
21574;BME280;10948;48.706;9.258;2023-04-01T03:31:12;96468.03;;;9.20;100.00
21574;BME280;10948;48.706;9.258;2023-04-01T03:33:38;96464.72;;;9.18;100.00
21574;BME280;10948;48.706;9.258;2023-04-01T03:36:04;96467.53;;;9.04;100.00
21574;BME280;10948;48.706;9.258;2023-04-01T03:38:31;96472.63;;;9.17;100.00
21574;BME280;10948;48.706;9.258;2023-04-01T03:40:57;96467.31;;;9.29;100.00
21574;BME280;10948;48.706;9.258;2023-04-01T03:43:22;96466.13;;;9.22;100.00
21574;BME280;10948;48.706;9.258;2023-04-01T03:45:48;96468.50;;;9.14;100.00
21574;BME280;10948;48.706;9.258;2023-04-01T03:48:14;96475.31;;;9.15;100.00
21574;BME280;10948;48.706;9.258;2023-04-01T03:50:39;96469.47;;;9.24;100.00
21574;BME280;10948;48.706;9.258;2023-04-01T03:53:05;96471.31;;;9.22;100.00
21574;BME280;10948;48.706;9.258;2023-04-01T03:55:30;96470.38;;;9.12;100.00
21574;BME280;10948;48.706;9.258;2023-04-01T03:57:56;96461.25;;;9.07;100.00
21574;BME280;10948;48.706;9.258;2023-04-01T04:00:22;96464.59;;;9.09;100.00
21574;BME280;10948;48.706;9.258;2023-04-01T04:02:47;96455.97;;;8.97;100.00
21574;BME280;10948;48.706;9.258;2023-04-01T04:05:12;96458.56;;;8.97;100.00
21574;BME280;10948;48.706;9.258;2023-04-01T04:07:38;96448.94;;;8.87;100.00
21574;BME280;10948;48.706;9.258;2023-04-01T04:10:03;96441.00;;;9.01;100.00
21574;BME280;10948;48.706;9.258;2023-04-01T04:12:28;96439.56;;;8.97;100.00
21574;BME280;10948;48.706;9.258;2023-04-01T04:14:54;96447.59;;;8.94;100.00
21574;BME280;10948;48.706;9.258;2023-04-01T04:17:19;96444.16;;;8.93;100.00
21574;BME280;10948;48.706;9.258;2023-04-01T04:19:44;96446.25;;;8.88;100.00
21574;BME280;10948;48.706;9.258;2023-04-01T04:22:09;96443.16;;;8.72;100.00
21574;BME280;10948;48.706;9.258;2023-04-01T04:24:35;96443.16;;;8.72;100.00
21574;BME280;10948;48.706;9.258;2023-04-01T04:27:00;96441.56;;;8.93;100.00
21574;BME280;10948;48.706;9.258;2023-04-01T04:29:26;96442.94;;;8.86;100.00
21574;BME280;10948;48.706;9.258;2023-04-01T04:31:51;96444.59;;;8.87;100.00
21574;BME280;10948;48.706;9.258;2023-04-01T04:34:16;96445.50;;;8.75;100.00
21574;BME280;10948;48.706;9.258;2023-04-01T04:36:43;96449.13;;;8.62;100.00
21574;BME280;10948;48.706;9.258;2023-04-01T04:39:08;96443.09;;;8.61;100.00
21574;BME280;10948;48.706;9.258;2023-04-01T04:41:33;96443.94;;;8.62;100.00
21574;BME280;10948;48.706;9.258;2023-04-01T04:43:58;96443.09;;;8.61;100.00
21574;BME280;10948;48.706;9.258;2023-04-01T04:46:24;96445.94;;;8.58;100.00
21574;BME280;10948;48.706;9.258;2023-04-01T04:48:49;96446.34;;;8.76;100.00
21574;BME280;10948;48.706;9.258;2023-04-01T04:51:16;96440.31;;;8.75;100.00
21574;BME280;10948;48.706;9.258;2023-04-01T04:53:42;96438.13;;;8.93;100.00
21574;BME280;10948;48.706;9.258;2023-04-01T04:56:07;96440.44;;;8.74;100.00
21574;BME280;10948;48.706;9.258;2023-04-01T04:58:32;96438.72;;;8.96;100.00
21574;BME280;10948;48.706;9.258;2023-04-01T05:00:58;96434.91;;;8.78;100.00
21574;BME280;10948;48.706;9.258;2023-04-01T05:03:23;96442.41;;;8.70;100.00
21574;BME280;10948;48.706;9.258;2023-04-01T05:05:53;96442.69;;;8.78;100.00
21574;BME280;10948;48.706;9.258;2023-04-01T05:08:18;96443.41;;;8.80;100.00
21574;BME280;10948;48.706;9.258;2023-04-01T05:10:44;96437.78;;;8.86;100.00
21574;BME280;10948;48.706;9.258;2023-04-01T05:13:09;96439.00;;;9.04;100.00
21574;BME280;10948;48.706;9.258;2023-04-01T05:15:36;96443.75;;;8.87;100.00
21574;BME280;10948;48.706;9.258;2023-04-01T05:18:02;96432.84;;;9.05;100.00
21574;BME280;10948;48.706;9.258;2023-04-01T05:20:27;96428.59;;;8.93;100.00
21574;BME280;10948;48.706;9.258;2023-04-01T05:22:56;96423.41;;;9.15;100.00
21574;BME280;10948;48.706;9.258;2023-04-01T05:25:21;96418.22;;;9.15;100.00
21574;BME280;10948;48.706;9.258;2023-04-01T05:27:46;96417.03;;;9.08;100.00
21574;BME280;10948;48.706;9.258;2023-04-01T05:30:12;96418.22;;;9.15;100.00
21574;BME280;10948;48.706;9.258;2023-04-01T05:32:37;96417.91;;;9.31;100.00
21574;BME280;10948;48.706;9.258;2023-04-01T05:35:03;96407.16;;;9.24;100.00
21574;BME280;10948;48.706;9.258;2023-04-01T05:37:28;96418.28;;;9.37;100.00
21574;BME280;10948;48.706;9.258;2023-04-01T05:39:53;96414.13;;;9.35;100.00
21574;BME280;10948;48.706;9.258;2023-04-01T05:42:18;96418.28;;;9.37;100.00
21574;BME280;10948;48.706;9.258;2023-04-01T05:44:44;96423.69;;;9.45;100.00
21574;BME280;10948;48.706;9.258;2023-04-01T05:47:09;96419.66;;;9.63;100.00
21574;BME280;10948;48.706;9.258;2023-04-01T05:49:34;96414.97;;;9.57;100.00
21574;BME280;10948;48.706;9.258;2023-04-01T05:52:00;96413.97;;;9.69;100.00
21574;BME280;10948;48.706;9.258;2023-04-01T05:54:25;96408.09;;;9.78;100.00
21574;BME280;10948;48.706;9.258;2023-04-01T05:56:50;96411.28;;;9.71;100.00
21574;BME280;10948;48.706;9.258;2023-04-01T05:59:16;96408.78;;;9.80;100.00
21574;BME280;10948;48.706;9.258;2023-04-01T06:01:41;96400.00;;;10.14;100.00
21574;BME280;10948;48.706;9.258;2023-04-01T06:04:09;96420.31;;;10.20;100.00
21574;BME280;10948;48.706;9.258;2023-04-01T06:06:35;96414.63;;;10.26;100.00
21574;BME280;10948;48.706;9.258;2023-04-01T06:09:06;96409.81;;;10.42;100.00
21574;BME280;10948;48.706;9.258;2023-04-01T06:14:12;96405.03;;;10.99;100.00
21574;BME280;10948;48.706;9.258;2023-04-01T06:16:49;96402.63;;;11.07;100.00
21574;BME280;10948;48.706;9.258;2023-04-01T06:19:27;96393.28;;;11.04;100.00
21574;BME280;10948;48.706;9.258;2023-04-01T06:32:31;96391.59;;;11.54;95.80
21574;BME280;10948;48.706;9.258;2023-04-01T06:37:35;96404.34;;;11.47;97.07
21574;BME280;10948;48.706;9.258;2023-04-01T06:50:30;96402.03;;;11.24;98.40
21574;BME280;10948;48.706;9.258;2023-04-01T06:53:06;96404.13;;;11.30;100.00
21574;BME280;10948;48.706;9.258;2023-04-01T06:55:36;96397.69;;;11.04;100.00
21574;BME280;10948;48.706;9.258;2023-04-01T06:58:06;96398.81;;;11.11;100.00
21574;BME280;10948;48.706;9.258;2023-04-01T07:00:36;96399.06;;;11.08;100.00
21574;BME280;10948;48.706;9.258;2023-04-01T07:06:05;96396.78;;;10.94;100.00
21574;BME280;10948;48.706;9.258;2023-04-01T07:08:31;96397.13;;;11.00;100.00
21574;BME280;10948;48.706;9.258;2023-04-01T07:11:03;96402.78;;;11.15;100.00
21574;BME280;10948;48.706;9.258;2023-04-01T07:13:30;96406.84;;;11.28;100.00
21574;BME280;10948;48.706;9.258;2023-04-01T07:16:01;96404.84;;;11.11;100.00
21574;BME280;10948;48.706;9.258;2023-04-01T07:18:31;96404.38;;;11.27;100.00
21574;BME280;10948;48.706;9.258;2023-04-01T07:20:57;96412.78;;;10.89;100.00
21574;BME280;10948;48.706;9.258;2023-04-01T07:23:33;96396.00;;;11.23;100.00
21574;BME280;10948;48.706;9.258;2023-04-01T07:26:10;96404.25;;;11.08;100.00
21574;BME280;10948;48.706;9.258;2023-04-01T07:28:39;96401.75;;;10.97;100.00
21574;BME280;10948;48.706;9.258;2023-04-01T07:31:07;96407.31;;;11.13;100.00
21574;BME280;10948;48.706;9.258;2023-04-01T07:33:57;96396.38;;;11.19;100.00
21574;BME280;10948;48.706;9.258;2023-04-01T07:41:46;96414.44;;;11.11;100.00
21574;BME280;10948;48.706;9.258;2023-04-01T07:44:25;96419.13;;;11.17;100.00
21574;BME280;10948;48.706;9.258;2023-04-01T07:52:34;96414.94;;;11.05;100.00
21574;BME280;10948;48.706;9.258;2023-04-01T08:02:41;96426.59;;;11.31;100.00
21574;BME280;10948;48.706;9.258;2023-04-01T08:07:45;96425.09;;;11.28;100.00
21574;BME280;10948;48.706;9.258;2023-04-01T08:10:23;96418.06;;;11.49;100.00
21574;BME280;10948;48.706;9.258;2023-04-01T08:18:06;96419.59;;;11.31;100.00
21574;BME280;10948;48.706;9.258;2023-04-01T08:20:40;96426.78;;;11.39;100.00
21574;BME280;10948;48.706;9.258;2023-04-01T08:25:37;96425.31;;;11.46;100.00
21574;BME280;10948;48.706;9.258;2023-04-01T08:33:05;96447.69;;;11.28;100.00
21574;BME280;10948;48.706;9.258;2023-04-01T08:35:38;96436.63;;;11.56;100.00
21574;BME280;10948;48.706;9.258;2023-04-01T08:38:09;96435.22;;;11.52;100.00
21574;BME280;10948;48.706;9.258;2023-04-01T08:45:48;96437.69;;;11.53;100.00
21574;BME280;10948;48.706;9.258;2023-04-01T08:48:23;96436.84;;;11.53;100.00
21574;BME280;10948;48.706;9.258;2023-04-01T09:09:40;96437.16;;;11.09;100.00
21574;BME280;10948;48.706;9.258;2023-04-01T09:12:21;96433.34;;;11.13;100.00
21574;BME280;10948;48.706;9.258;2023-04-01T09:14:57;96436.91;;;11.12;100.00
21574;BME280;10948;48.706;9.258;2023-04-01T09:17:39;96432.38;;;11.34;100.00
21574;BME280;10948;48.706;9.258;2023-04-01T09:25:21;96435.66;;;11.57;100.00
21574;BME280;10948;48.706;9.258;2023-04-01T09:27:54;96436.28;;;11.70;100.00
21574;BME280;10948;48.706;9.258;2023-04-01T09:35:39;96436.22;;;12.00;100.00
21574;BME280;10948;48.706;9.258;2023-04-01T09:51:19;96462.19;;;11.71;100.00
21574;BME280;10948;48.706;9.258;2023-04-01T10:17:21;96473.97;;;11.66;100.00
21574;BME280;10948;48.706;9.258;2023-04-01T10:19:55;96474.53;;;11.69;100.00
21574;BME280;10948;48.706;9.258;2023-04-01T10:53:46;96467.94;;;13.30;96.70
21574;BME280;10948;48.706;9.258;2023-04-01T11:04:29;96467.03;;;13.67;92.22
21574;BME280;10948;48.706;9.258;2023-04-01T11:09:59;96477.69;;;13.28;92.57
21574;BME280;10948;48.706;9.258;2023-04-01T11:15:31;96476.19;;;13.25;93.42
21574;BME280;10948;48.706;9.258;2023-04-01T11:18:08;96472.03;;;13.42;93.88
21574;BME280;10948;48.706;9.258;2023-04-01T11:20:42;96486.25;;;13.20;90.91
21574;BME280;10948;48.706;9.258;2023-04-01T11:33:30;96474.53;;;13.15;88.76
21574;BME280;10948;48.706;9.258;2023-04-01T11:36:01;96474.94;;;13.39;88.13
21574;BME280;10948;48.706;9.258;2023-04-01T11:38:45;96478.75;;;13.54;88.00
21574;BME280;10948;48.706;9.258;2023-04-01T11:44:22;96494.69;;;13.70;86.37
21574;BME280;10948;48.706;9.258;2023-04-01T11:46:56;96494.28;;;13.65;85.68
21574;BME280;10948;48.706;9.258;2023-04-01T12:05:18;96499.41;;;13.38;83.81
21574;BME280;10948;48.706;9.258;2023-04-01T12:10:18;96496.22;;;13.63;84.00
21574;BME280;10948;48.706;9.258;2023-04-01T12:20:57;96496.78;;;13.57;84.74
21574;BME280;10948;48.706;9.258;2023-04-01T12:31:04;96499.44;;;13.84;83.27
21574;BME280;10948;48.706;9.258;2023-04-01T12:36:37;96505.34;;;13.86;81.48
21574;BME280;10948;48.706;9.258;2023-04-01T12:47:50;96510.38;;;14.43;82.47
21574;BME280;10948;48.706;9.258;2023-04-01T12:52:25;96510.22;;;14.89;79.43
21574;BME280;10948;48.706;9.258;2023-04-01T12:55:08;96516.72;;;15.02;78.05
21574;BME280;10948;48.706;9.258;2023-04-01T13:00:31;96511.81;;;15.34;75.76
21574;BME280;10948;48.706;9.258;2023-04-01T13:21:01;96526.09;;;15.40;70.96
21574;BME280;10948;48.706;9.258;2023-04-01T13:26:13;96526.53;;;14.83;71.53
21574;BME280;10948;48.706;9.258;2023-04-01T13:28:44;96529.28;;;14.81;72.81
21574;BME280;10948;48.706;9.258;2023-04-01T13:31:21;96527.69;;;14.71;71.93
21574;BME280;10948;48.706;9.258;2023-04-01T13:39:06;96534.16;;;14.94;73.87
21574;BME280;10948;48.706;9.258;2023-04-01T13:41:55;96529.53;;;15.05;73.08
21574;BME280;10948;48.706;9.258;2023-04-01T13:44:37;96537.00;;;14.83;72.64
21574;BME280;10948;48.706;9.258;2023-04-01T14:31:38;96562.41;;;14.73;75.35
21574;BME280;10948;48.706;9.258;2023-04-01T14:37:00;96561.75;;;14.44;75.28
21574;BME280;10948;48.706;9.258;2023-04-01T14:49:41;96568.31;;;14.21;76.11
21574;BME280;10948;48.706;9.258;2023-04-01T14:52:23;96568.13;;;13.86;76.61
21574;BME280;10948;48.706;9.258;2023-04-01T14:54:49;96576.69;;;13.69;77.04
21574;BME280;10948;48.706;9.258;2023-04-01T14:59:51;96582.56;;;13.90;76.63
21574;BME280;10948;48.706;9.258;2023-04-01T15:05:05;96570.78;;;14.13;75.51
21574;BME280;10948;48.706;9.258;2023-04-01T15:15:46;96582.31;;;13.74;77.65
21574;BME280;10948;48.706;9.258;2023-04-01T15:38:50;96599.53;;;13.10;79.44
21574;BME280;10948;48.706;9.258;2023-04-01T15:44:01;96604.63;;;13.40;79.06
21574;BME280;10948;48.706;9.258;2023-04-01T15:46:44;96609.44;;;13.35;80.01
21574;BME280;10948;48.706;9.258;2023-04-01T15:51:52;96614.81;;;13.24;82.72
21574;BME280;10948;48.706;9.258;2023-04-01T15:54:28;96620.28;;;13.21;83.62
21574;BME280;10948;48.706;9.258;2023-04-01T16:04:44;96628.44;;;12.88;85.95
21574;BME280;10948;48.706;9.258;2023-04-01T16:07:21;96632.78;;;13.08;86.69
21574;BME280;10948;48.706;9.258;2023-04-01T16:15:02;96640.50;;;12.70;90.49
21574;BME280;10948;48.706;9.258;2023-04-01T16:20:20;96636.66;;;12.74;93.01
21574;BME280;10948;48.706;9.258;2023-04-01T16:22:49;96635.88;;;12.83;94.19
21574;BME280;10948;48.706;9.258;2023-04-01T16:30:35;96630.56;;;12.54;99.20
21574;BME280;10948;48.706;9.258;2023-04-01T16:36:06;96636.34;;;12.58;98.76
21574;BME280;10948;48.706;9.258;2023-04-01T16:38:34;96640.31;;;12.62;97.19
21574;BME280;10948;48.706;9.258;2023-04-01T16:45:55;96641.88;;;12.74;96.07
21574;BME280;10948;48.706;9.258;2023-04-01T16:48:24;96649.03;;;12.72;96.36
21574;BME280;10948;48.706;9.258;2023-04-01T16:53:34;96649.81;;;12.63;96.19
21574;BME280;10948;48.706;9.258;2023-04-01T16:58:27;96651.47;;;12.34;96.02
21574;BME280;10948;48.706;9.258;2023-04-01T17:01:07;96650.06;;;12.60;94.25
21574;BME280;10948;48.706;9.258;2023-04-01T17:03:41;96655.56;;;12.57;94.57
21574;BME280;10948;48.706;9.258;2023-04-01T17:08:44;96661.56;;;12.48;94.64
21574;BME280;10948;48.706;9.258;2023-04-01T17:11:15;96657.47;;;12.55;93.91
21574;BME280;10948;48.706;9.258;2023-04-01T17:13:48;96653.59;;;12.19;94.70
21574;BME280;10948;48.706;9.258;2023-04-01T17:18:53;96649.13;;;12.31;92.47
21574;BME280;10948;48.706;9.258;2023-04-01T17:21:36;96648.84;;;12.34;92.50
21574;BME280;10948;48.706;9.258;2023-04-01T17:26:48;96664.50;;;12.34;93.09
21574;BME280;10948;48.706;9.258;2023-04-01T17:29:23;96665.28;;;12.25;92.47
21574;BME280;10948;48.706;9.258;2023-04-01T17:32:10;96671.28;;;12.16;93.41
21574;BME280;10948;48.706;9.258;2023-04-01T17:34:52;96668.41;;;12.39;92.51
21574;BME280;10948;48.706;9.258;2023-04-01T17:39:55;96684.50;;;12.24;92.64
21574;BME280;10948;48.706;9.258;2023-04-01T17:42:36;96675.16;;;12.21;93.01
21574;BME280;10948;48.706;9.258;2023-04-01T17:45:10;96685.25;;;12.15;93.65
21574;BME280;10948;48.706;9.258;2023-04-01T17:50:21;96685.19;;;12.05;93.77
21574;BME280;10948;48.706;9.258;2023-04-01T17:52:49;96683.81;;;12.01;94.89
21574;BME280;10948;48.706;9.258;2023-04-01T17:57:56;96689.16;;;12.00;94.36
21574;BME280;10948;48.706;9.258;2023-04-01T18:00:29;96697.16;;;11.87;96.21
21574;BME280;10948;48.706;9.258;2023-04-01T18:03:04;96693.78;;;11.76;96.58
21574;BME280;10948;48.706;9.258;2023-04-01T18:05:37;96697.97;;;11.88;96.53
21574;BME280;10948;48.706;9.258;2023-04-01T18:08:13;96707.53;;;11.78;98.07
21574;BME280;10948;48.706;9.258;2023-04-01T18:15:55;96722.84;;;11.92;96.91
21574;BME280;10948;48.706;9.258;2023-04-01T18:21:17;96731.25;;;11.95;98.13
21574;BME280;10948;48.706;9.258;2023-04-01T18:23:51;96737.03;;;11.99;99.35
21574;BME280;10948;48.706;9.258;2023-04-01T18:26:40;96743.59;;;11.93;100.00
21574;BME280;10948;48.706;9.258;2023-04-01T18:29:11;96759.81;;;11.97;100.00
21574;BME280;10948;48.706;9.258;2023-04-01T18:31:40;96772.69;;;11.67;100.00
21574;BME280;10948;48.706;9.258;2023-04-01T18:34:15;96775.31;;;11.56;100.00
21574;BME280;10948;48.706;9.258;2023-04-01T18:36:45;96764.28;;;11.52;100.00
21574;BME280;10948;48.706;9.258;2023-04-01T18:39:18;96773.91;;;11.52;100.00
21574;BME280;10948;48.706;9.258;2023-04-01T18:47:07;96768.22;;;11.36;99.80
21574;BME280;10948;48.706;9.258;2023-04-01T18:52:25;96779.00;;;11.42;100.00
21574;BME280;10948;48.706;9.258;2023-04-01T19:00:04;96779.16;;;11.30;100.00
21574;BME280;10948;48.706;9.258;2023-04-01T19:10:00;96792.88;;;11.32;99.21
21574;BME280;10948;48.706;9.258;2023-04-01T19:14:56;96790.28;;;11.21;99.34
21574;BME280;10948;48.706;9.258;2023-04-01T19:19:59;96789.84;;;11.05;99.61
21574;BME280;10948;48.706;9.258;2023-04-01T19:25:19;96794.56;;;11.00;100.00
21574;BME280;10948;48.706;9.258;2023-04-01T19:27:50;96800.22;;;10.72;100.00
21574;BME280;10948;48.706;9.258;2023-04-01T19:46:25;96799.69;;;10.56;100.00
21574;BME280;10948;48.706;9.258;2023-04-01T19:51:34;96798.53;;;10.60;100.00
21574;BME280;10948;48.706;9.258;2023-04-01T19:54:12;96810.59;;;10.61;100.00
21574;BME280;10948;48.706;9.258;2023-04-01T19:56:44;96804.00;;;10.57;100.00
21574;BME280;10948;48.706;9.258;2023-04-01T20:04:32;96827.13;;;10.49;100.00
21574;BME280;10948;48.706;9.258;2023-04-01T20:07:00;96824.75;;;10.46;100.00
21574;BME280;10948;48.706;9.258;2023-04-01T20:12:17;96851.97;;;10.53;100.00
21574;BME280;10948;48.706;9.258;2023-04-01T20:17:24;96855.19;;;10.57;100.00
21574;BME280;10948;48.706;9.258;2023-04-01T20:20:01;96853.41;;;10.57;100.00
21574;BME280;10948;48.706;9.258;2023-04-01T20:25:23;96846.28;;;10.48;100.00
21574;BME280;10948;48.706;9.258;2023-04-01T20:33:01;96852.56;;;10.22;100.00
21574;BME280;10948;48.706;9.258;2023-04-01T20:41:02;96868.22;;;10.33;100.00
21574;BME280;10948;48.706;9.258;2023-04-01T20:46:20;96866.13;;;10.38;100.00
21574;BME280;10948;48.706;9.258;2023-04-01T20:48:53;96868.59;;;10.40;100.00
21574;BME280;10948;48.706;9.258;2023-04-01T20:51:24;96864.72;;;10.45;100.00
21574;BME280;10948;48.706;9.258;2023-04-01T20:54:17;96866.94;;;10.39;100.00
21574;BME280;10948;48.706;9.258;2023-04-01T21:07:02;96876.44;;;10.51;100.00
21574;BME280;10948;48.706;9.258;2023-04-01T21:17:23;96886.50;;;10.55;100.00
21574;BME280;10948;48.706;9.258;2023-04-01T21:22:30;96887.25;;;10.57;100.00
21574;BME280;10948;48.706;9.258;2023-04-01T21:25:03;96893.16;;;10.59;100.00
21574;BME280;10948;48.706;9.258;2023-04-01T21:48:37;96900.78;;;10.50;100.00
21574;BME280;10948;48.706;9.258;2023-04-01T21:53:44;96900.97;;;10.36;100.00
21574;BME280;10948;48.706;9.258;2023-04-01T22:06:49;96920.75;;;10.49;100.00
21574;BME280;10948;48.706;9.258;2023-04-01T22:14:35;96926.19;;;10.46;100.00
21574;BME280;10948;48.706;9.258;2023-04-01T22:20:16;96929.50;;;10.48;100.00
21574;BME280;10948;48.706;9.258;2023-04-01T22:27:23;96932.09;;;10.37;100.00
21574;BME280;10948;48.706;9.258;2023-04-01T22:32:49;96938.44;;;10.33;100.00
21574;BME280;10948;48.706;9.258;2023-04-01T22:50:01;96942.94;;;10.31;100.00
21574;BME280;10948;48.706;9.258;2023-04-01T22:52:33;96939.22;;;10.46;100.00
21574;BME280;10948;48.706;9.258;2023-04-01T22:55:02;96938.94;;;10.38;100.00
21574;BME280;10948;48.706;9.258;2023-04-01T23:03:25;96944.78;;;10.29;100.00
21574;BME280;10948;48.706;9.258;2023-04-01T23:05:23;96952.41;;;10.20;100.00
21574;BME280;10948;48.706;9.258;2023-04-01T23:10:29;96957.91;;;10.28;100.00
21574;BME280;10948;48.706;9.258;2023-04-01T23:13:01;96958.13;;;10.25;100.00